Kimberly, WI (54136)

9:51 AM CDT on September 04, 2015 (GMT -0500)
N9OEQ - Darboy USA | | Change Station
CLOSE
Current Station
Personal Weather Station
Location: Appleton, WI
Elevation: 735 ft
Nearby Weather Stations

Elev 735 ft 44.25 °N, 88.35 °W | Updated 3 minutes ago

Overcast
Overcast
69.6 °F
Feels Like 69.6 °F
N
0.0
Wind Variable Wind from East
Gusts 1.6 mph

Today
High -- | Low -- °F
--% Chance of Precip.
Yesterday
High -- | Low -- °F
Precip. -- in
6:19 AM 7:24 PM
Waning Gibbous, 59% visible
Pressure 30.04 in
Visibility 7.0 miles
Clouds Overcast 500 ft
Dew Point 67 °F
Humidity 90%
Rainfall 0.00 in
Snow Depth Not available.
UV 1 out of 12
Pollen 8.90 out of 12
Air Quality Not available.
Flu Activity Not available.
METAR KATW 041445Z VRB05KT 7SM OVC005 19/19 A3004
Pressure 30.04 in
Visibility 7.0 miles
Clouds Overcast 500 ft
Dew Point 67 °F
Humidity 90%
Rainfall 0.00 in
Snow Depth Not available.
UV 1 out of 12
Pollen 8.90 out of 12
Air Quality Not available.
Flu Activity Not available.
METAR KATW 041445Z VRB05KT 7SM OVC005 19/19 A3004

10-Day Weather Forecast

×

Almanac

Astronomy

Sep. 04, 2015 Rise Set
Actual Time
Civil Twilight
Nautical Twilight
Astronomical Twilight
Moon
Length of Visible Light
Length of Day
Tomorrow will be .
, % of the Moon is Illuminated

Today's Extremes

State Highs State Lows

Community

WunderPhotos

Upload Photos

1,852,187 photos uploaded!

WunderBlogs® & News

Nearby

Air Quality

  Air Quality AQ Index Pollutant
Not available.

Snow Depth

Station Depth Elevation

Earthquake Activity

City Distance Mag. Time & Date
Minimum magnitude displayed is 2.5.

Coastal Water Temperatures

Place Temperature

Stations

Nearby Weather Stations

Station Location Temp. Windchill Dew Point Humidity Wind Precip. Elev Updated Type